createdAt,value
2023-03-22T00:01:44.254Z,7.80
2023-03-22T00:04:13.444Z,7.90
2023-03-22T00:06:44.099Z,7.60
2023-03-22T00:09:14.547Z,7.90
2023-03-22T00:11:43.753Z,7.90
2023-03-22T00:14:13.088Z,8.00
2023-03-22T00:16:42.004Z,7.90
2023-03-22T00:19:11.683Z,7.90
2023-03-22T00:21:40.678Z,7.90
2023-03-22T00:24:10.934Z,7.90
2023-03-22T00:26:42.264Z,7.90
2023-03-22T00:29:11.372Z,7.90
2023-03-22T00:31:41.511Z,7.70
2023-03-22T00:34:10.733Z,7.60
2023-03-22T00:36:41.398Z,7.60
2023-03-22T00:39:10.351Z,7.60
2023-03-22T00:41:40.869Z,7.60
2023-03-22T00:44:11.158Z,7.50
2023-03-22T00:46:40.405Z,7.50
2023-03-22T00:49:10.061Z,7.50
2023-03-22T00:51:39.179Z,7.50
2023-03-22T00:54:08.623Z,7.50
2023-03-22T00:56:37.952Z,7.40
2023-03-22T00:59:15.501Z,7.40
2023-03-22T01:01:45.729Z,7.40
2023-03-22T01:04:18.671Z,7.40
2023-03-22T01:06:48.415Z,7.40
2023-03-22T01:09:17.748Z,7.40
2023-03-22T01:11:48.361Z,7.40
2023-03-22T01:14:19.915Z,7.40
2023-03-22T01:16:49.652Z,7.40
2023-03-22T01:19:18.749Z,7.40
2023-03-22T01:21:47.794Z,7.40
2023-03-22T01:24:17.361Z,7.40
2023-03-22T01:26:46.828Z,7.40
2023-03-22T01:29:16.045Z,7.40
2023-03-22T01:31:47.361Z,7.40
2023-03-22T01:34:16.356Z,7.40
2023-03-22T01:36:45.569Z,7.40
2023-03-22T01:39:15.374Z,7.40
2023-03-22T01:41:47.238Z,7.40
2023-03-22T01:44:21.141Z,7.40
2023-03-22T01:46:53.826Z,7.40
2023-03-22T01:49:27.622Z,7.40
2023-03-22T01:51:59.317Z,7.40
2023-03-22T01:54:56.193Z,7.40
2023-03-22T01:57:34.186Z,7.40
2023-03-22T02:00:04.816Z,7.40
2023-03-22T02:02:53.328Z,7.40
2023-03-22T02:05:30.816Z,7.50
2023-03-22T02:08:02.905Z,7.60
2023-03-22T02:10:40.079Z,7.60
2023-03-22T02:13:30.520Z,7.40
2023-03-22T02:16:33.146Z,7.40
2023-03-22T02:19:42.860Z,7.40
2023-03-22T02:22:40.078Z,7.40
2023-03-22T02:25:29.476Z,7.40
2023-03-22T02:28:30.263Z,7.40
2023-03-22T02:31:18.578Z,7.40
2023-03-22T02:34:16.292Z,7.40
2023-03-22T02:37:22.183Z,7.40
2023-03-22T02:39:57.533Z,7.40
2023-03-22T02:42:38.545Z,7.50
2023-03-22T02:45:16.068Z,7.40
2023-03-22T02:47:55.543Z,7.40
2023-03-22T02:50:30.667Z,7.40
2023-03-22T02:53:06.730Z,7.40
2023-03-22T02:55:42.820Z,7.40
2023-03-22T02:58:17.444Z,7.40
2023-03-22T03:00:50.275Z,7.40
2023-03-22T03:03:20.489Z,7.50
2023-03-22T03:05:56.545Z,7.40
2023-03-22T03:08:27.763Z,7.40
2023-03-22T03:10:59.207Z,7.30
2023-03-22T03:13:29.812Z,7.30
2023-03-22T03:16:02.255Z,7.30
2023-03-22T03:18:45.000Z,7.40
2023-03-22T03:21:30.767Z,7.40
2023-03-22T03:24:10.664Z,7.40
2023-03-22T03:26:50.954Z,7.30
2023-03-22T03:29:29.703Z,7.30
2023-03-22T03:32:06.993Z,7.30
2023-03-22T03:34:46.122Z,7.30
2023-03-22T03:37:19.826Z,7.40
2023-03-22T03:39:54.229Z,7.50
2023-03-22T03:42:28.574Z,7.50
2023-03-22T03:44:59.111Z,7.50
2023-03-22T03:47:30.325Z,7.40
2023-03-22T03:49:59.658Z,7.40
2023-03-22T03:52:30.069Z,7.40
2023-03-22T03:54:59.119Z,7.40
2023-03-22T03:57:35.300Z,7.50
2023-03-22T04:00:05.469Z,7.50
2023-03-22T04:02:43.125Z,7.50
2023-03-22T04:05:24.409Z,7.40
2023-03-22T04:07:55.465Z,7.40
2023-03-22T04:10:25.156Z,7.40
2023-03-22T04:12:56.098Z,7.40
2023-03-22T04:15:26.017Z,7.40
2023-03-22T04:17:58.500Z,7.40
2023-03-22T04:20:32.040Z,7.50
2023-03-22T04:23:02.696Z,7.50
2023-03-22T04:25:34.281Z,7.50
2023-03-22T04:28:11.299Z,7.40
2023-03-22T04:30:40.903Z,8.30
2023-03-22T04:33:28.193Z,7.30
2023-03-22T04:36:16.392Z,7.30
2023-03-22T04:39:12.780Z,7.30
2023-03-22T04:41:46.074Z,7.20
2023-03-22T04:44:16.919Z,7.20
2023-03-22T04:46:51.186Z,7.20
2023-03-22T04:49:20.820Z,7.20
2023-03-22T04:51:49.638Z,7.20
2023-03-22T04:54:28.708Z,7.20
2023-03-22T04:56:58.249Z,7.10
2023-03-22T04:59:31.249Z,7.10
2023-03-22T05:02:01.918Z,7.10
2023-03-22T05:04:38.069Z,7.00
2023-03-22T05:07:15.628Z,7.00
2023-03-22T05:09:51.079Z,7.00
2023-03-22T05:12:20.521Z,7.00
2023-03-22T05:15:13.747Z,7.10
2023-03-22T05:17:42.933Z,7.00
2023-03-22T05:20:14.189Z,7.00
2023-03-22T05:22:46.334Z,7.00
2023-03-22T05:25:16.577Z,7.00
2023-03-22T05:27:50.690Z,7.00
2023-03-22T05:30:36.452Z,7.10
2023-03-22T05:33:35.138Z,7.20
2023-03-22T05:36:06.334Z,7.20
2023-03-22T05:38:42.151Z,7.20
2023-03-22T05:41:11.686Z,7.20
2023-03-22T05:43:40.924Z,7.20
2023-03-22T05:46:14.240Z,7.20
2023-03-22T05:48:52.420Z,7.20
2023-03-22T05:51:21.517Z,7.30
2023-03-22T05:53:54.504Z,7.30
2023-03-22T05:56:30.565Z,7.40
2023-03-22T05:59:07.361Z,7.40
2023-03-22T06:01:39.622Z,7.40
2023-03-22T06:04:35.073Z,7.50
2023-03-22T06:07:10.690Z,7.50
2023-03-22T06:09:58.269Z,7.50
2023-03-22T06:12:31.912Z,7.60
2023-03-22T06:15:09.575Z,7.70
2023-03-22T06:18:15.803Z,7.80
2023-03-22T06:20:48.909Z,7.80
2023-03-22T06:23:23.360Z,7.70
2023-03-22T06:25:52.646Z,7.80
2023-03-22T06:28:22.017Z,7.80
2023-03-22T06:30:53.553Z,7.80
2023-03-22T06:33:42.736Z,8.00
2023-03-22T06:36:24.304Z,8.10
2023-03-22T06:39:26.244Z,8.10
2023-03-22T06:41:56.903Z,8.30
2023-03-22T06:44:26.282Z,8.30
2023-03-22T06:47:07.871Z,8.60
2023-03-22T06:49:55.561Z,8.60
2023-03-22T06:52:29.479Z,8.80
2023-03-22T06:54:59.693Z,8.90
2023-03-22T06:57:29.091Z,8.90
2023-03-22T06:59:58.628Z,9.10
2023-03-22T07:02:27.709Z,9.00
2023-03-22T07:05:16.895Z,9.10
2023-03-22T07:07:46.510Z,9.00
2023-03-22T07:10:15.814Z,9.20
2023-03-22T07:12:46.204Z,9.30
2023-03-22T07:15:26.088Z,9.40
2023-03-22T07:18:08.885Z,9.40
2023-03-22T07:20:44.405Z,9.70
2023-03-22T07:23:21.656Z,9.70
2023-03-22T07:25:56.320Z,9.70
2023-03-22T07:28:32.920Z,10.00
2023-03-22T07:31:05.644Z,10.10
2023-03-22T07:33:46.506Z,10.00
2023-03-22T07:36:17.435Z,10.30
2023-03-22T07:38:47.136Z,10.60
2023-03-22T07:41:24.761Z,10.70
2023-03-22T07:44:16.683Z,10.80
2023-03-22T07:46:54.772Z,11.00
2023-03-22T07:49:28.854Z,11.40
2023-03-22T07:52:07.494Z,11.50
2023-03-22T07:54:38.081Z,11.60
2023-03-22T07:57:17.228Z,11.90
2023-03-22T07:59:52.345Z,12.10
2023-03-22T08:02:21.745Z,12.50
2023-03-22T08:04:56.683Z,13.00
2023-03-22T08:07:47.515Z,13.40
2023-03-22T08:10:17.114Z,13.90
2023-03-22T08:12:46.523Z,14.30
2023-03-22T08:15:23.598Z,14.60
2023-03-22T08:17:53.499Z,14.50
2023-03-22T08:20:34.824Z,14.90
2023-03-22T08:23:14.619Z,15.60
2023-03-22T08:26:16.546Z,15.90
2023-03-22T08:28:45.852Z,16.40
2023-03-22T08:31:16.062Z,16.50
2023-03-22T08:33:47.403Z,16.40
2023-03-22T08:36:19.499Z,16.70
2023-03-22T08:38:58.487Z,16.70
2023-03-22T08:41:41.053Z,16.00
2023-03-22T08:44:10.621Z,16.10
2023-03-22T08:46:40.159Z,16.60
2023-03-22T08:49:10.782Z,17.20
2023-03-22T08:52:07.004Z,17.80
2023-03-22T08:54:54.953Z,18.20
2023-03-22T08:57:43.044Z,18.40
2023-03-22T09:00:47.647Z,17.40
2023-03-22T09:03:40.112Z,17.20
2023-03-22T09:06:11.100Z,17.40
2023-03-22T09:08:43.249Z,17.00
2023-03-22T09:11:18.163Z,17.20
2023-03-22T09:13:54.723Z,18.20
2023-03-22T09:16:24.424Z,18.90
2023-03-22T09:18:53.637Z,18.90
2023-03-22T09:21:24.464Z,19.30
2023-03-22T09:24:11.064Z,20.10
2023-03-22T09:26:50.002Z,21.20
2023-03-22T09:29:21.275Z,22.60
2023-03-22T09:31:50.919Z,21.20
2023-03-22T09:34:24.158Z,21.90
2023-03-22T09:36:54.912Z,22.40
2023-03-22T09:39:29.226Z,23.00
2023-03-22T09:42:06.221Z,24.10
2023-03-22T09:44:38.496Z,25.10
2023-03-22T09:47:18.253Z,25.80
2023-03-22T09:49:53.676Z,26.90
2023-03-22T09:52:23.468Z,27.20
2023-03-22T09:54:53.426Z,25.10
2023-03-22T09:57:34.063Z,25.10
2023-03-22T10:00:14.942Z,24.10
2023-03-22T10:02:54.640Z,24.80
2023-03-22T10:05:31.321Z,24.50
2023-03-22T10:08:34.964Z,24.70
2023-03-22T10:11:04.695Z,24.40
2023-03-22T10:13:42.153Z,23.60
2023-03-22T10:16:18.609Z,22.80
2023-03-22T10:18:53.450Z,22.60
2023-03-22T10:21:23.198Z,22.20
2023-03-22T10:23:56.956Z,22.50
2023-03-22T10:26:31.173Z,22.70
2023-03-22T10:29:04.221Z,22.40
2023-03-22T10:31:35.570Z,22.70
2023-03-22T10:34:07.958Z,22.40
2023-03-22T10:36:40.157Z,21.60
2023-03-22T10:39:17.169Z,22.00
2023-03-22T10:41:47.890Z,23.20
2023-03-22T10:44:21.243Z,23.60
2023-03-22T10:46:52.666Z,24.50
2023-03-22T10:49:26.569Z,23.50
2023-03-22T10:52:00.338Z,21.70
2023-03-22T10:54:31.238Z,21.00
2023-03-22T10:57:00.228Z,20.90
2023-03-22T10:59:49.193Z,21.50
2023-03-22T11:02:21.738Z,22.10
2023-03-22T11:04:53.213Z,21.90
2023-03-22T11:07:35.439Z,21.10
2023-03-22T11:10:24.007Z,21.40
2023-03-22T11:12:56.706Z,21.60
2023-03-22T11:15:30.805Z,23.10
2023-03-22T11:18:02.584Z,24.60
2023-03-22T11:20:32.391Z,26.00
2023-03-22T11:23:05.495Z,27.10
2023-03-22T11:25:37.899Z,25.60
2023-03-22T11:28:17.305Z,24.10
2023-03-22T11:31:01.914Z,23.90
2023-03-22T11:33:32.103Z,24.50
2023-03-22T11:36:02.808Z,24.10
2023-03-22T11:38:38.461Z,24.40
2023-03-22T11:41:11.402Z,23.10
2023-03-22T11:43:44.695Z,23.30
2023-03-22T11:46:17.771Z,23.40
2023-03-22T11:48:48.449Z,23.50
2023-03-22T11:51:20.468Z,22.20
2023-03-22T11:53:50.809Z,22.10
2023-03-22T11:56:29.370Z,21.70
2023-03-22T11:59:01.464Z,22.00
2023-03-22T12:01:38.308Z,22.10
2023-03-22T12:04:13.534Z,21.00
2023-03-22T12:06:43.480Z,21.20
2023-03-22T12:09:26.151Z,21.40
2023-03-22T12:12:04.431Z,21.00
2023-03-22T12:14:41.029Z,20.20
2023-03-22T12:17:18.120Z,20.20
2023-03-22T12:20:06.391Z,20.70
2023-03-22T12:22:37.408Z,22.10
2023-03-22T12:25:13.439Z,21.70
2023-03-22T12:27:46.875Z,22.10
2023-03-22T12:30:19.764Z,22.30
2023-03-22T12:32:53.922Z,22.30
2023-03-22T12:35:26.743Z,22.50
2023-03-22T12:37:59.988Z,22.60
2023-03-22T12:40:33.267Z,22.80
2023-03-22T12:43:09.426Z,22.00
2023-03-22T12:45:43.005Z,21.10
2023-03-22T12:48:18.712Z,21.20
2023-03-22T12:50:52.763Z,21.60
2023-03-22T12:53:23.091Z,22.10
2023-03-22T12:55:53.104Z,21.50
2023-03-22T12:58:25.762Z,22.00
2023-03-22T13:00:58.615Z,22.90
2023-03-22T13:03:32.892Z,23.10
2023-03-22T13:06:06.046Z,22.90
2023-03-22T13:09:13.654Z,24.30
2023-03-22T13:11:43.177Z,24.80
2023-03-22T13:14:19.889Z,23.30
2023-03-22T13:17:00.573Z,24.50
2023-03-22T13:19:36.633Z,24.50
2023-03-22T13:22:27.733Z,22.30
2023-03-22T13:25:02.402Z,23.20
2023-03-22T13:27:45.424Z,24.80
2023-03-22T13:30:24.436Z,25.20
2023-03-22T13:32:56.838Z,25.40
2023-03-22T13:35:29.855Z,24.90
2023-03-22T13:38:05.103Z,24.90
2023-03-22T13:40:38.353Z,25.50
2023-03-22T13:43:22.517Z,25.60
2023-03-22T13:46:13.371Z,25.60
2023-03-22T13:48:54.621Z,23.20
2023-03-22T13:51:32.826Z,22.00
2023-03-22T13:54:09.002Z,20.90
2023-03-22T13:56:57.576Z,20.30
2023-03-22T13:59:31.481Z,19.80
2023-03-22T14:02:05.860Z,18.80
2023-03-22T14:04:41.383Z,19.20
2023-03-22T14:07:22.876Z,19.80
2023-03-22T14:09:54.799Z,20.00
2023-03-22T14:12:30.748Z,20.50
2023-03-22T14:15:03.187Z,20.30
2023-03-22T14:17:37.387Z,19.70
2023-03-22T14:20:10.763Z,19.20
